84R weather

Smithville Crawford Municipal Airport
Smithville, Texas, United States

Public forecast

Using degrees Fahrenheit for public forecast. Weather courtesy of forecast.io.

METAR (pilot weather report)

Closest report is Giddings Lee County Airport, 12.8 nm (23.7 km) NE. Retrieved 2019/09/21 01:35 UTC (0 seconds ago):

KGYB 210135Z AUTO 00000KT 10SM CLR 30/24 A2999 RMK AO2 T02960236

TAF (pilot weather forecast)

Forecast is more than 12 hours old.

Closest forecast is Austin Bergstrom International Airport, 27.9 nm (51.7 km) WNW. Retrieved 2019/09/20 00:42 UTC (1 day ago):

TAF KAUS 202340Z 2100/2206 14016G26KT P6SM SCT060 BKN200 FM210400 16008KT P6SM FEW020 FM210800 15007KT P6SM SCT009 BKN012 FM211600 14011G21KT P6SM VCSH SCT035 FM220200 16007KT P6SM FEW030